Time;durP1;ratioP1;P1;durP2;ratioP2;P2;SDS_P1;SDS_P2;PMS_P1;PMS_P2;Temp;Humidity;BMP_temperature;BMP_pressure;BME280_temperature;BME280_humidity;BME280_pressure;Samples;Min_cycle;Max_cycle;Signal;HPM_P1;HPM_P2
2021/11/29 00:01:53;;;;;;;9.37;3.60;;;;;;;15.44;100.00;99778.88;5131765;28;20220;-66
2021/11/29 00:04:19;;;;;;;14.33;4.00;;;;;;;15.52;100.00;99778.94;5131503;27;20597;-65
2021/11/29 00:06:44;;;;;;;22.50;4.70;;;;;;;15.64;100.00;99776.00;5135443;27;20396;-66
2021/11/29 00:09:10;;;;;;;17.13;4.93;;;;;;;15.59;100.00;99762.41;5134226;27;20170;-66
2021/11/29 00:11:35;;;;;;;21.70;5.03;;;;;;;15.53;100.00;99756.75;5135201;27;20159;-66
2021/11/29 00:14:01;;;;;;;14.03;3.87;;;;;;;15.59;100.00;99749.16;5134826;27;20201;-66
2021/11/29 00:16:27;;;;;;;12.77;4.37;;;;;;;15.87;100.00;99749.78;5134638;27;20162;-62
2021/11/29 00:18:52;;;;;;;16.73;4.23;;;;;;;15.93;100.00;99749.13;5135205;27;20154;-62
2021/11/29 00:21:18;;;;;;;14.03;5.03;;;;;;;15.89;100.00;99758.41;5134982;27;20170;-63
2021/11/29 00:23:45;;;;;;;16.70;4.47;;;;;;;16.22;100.00;99733.63;5135260;27;20163;-66
2021/11/29 00:26:13;;;;;;;10.97;3.87;;;;;;;16.32;100.00;99726.38;5135084;27;20158;-66
2021/11/29 00:28:39;;;;;;;15.53;4.60;;;;;;;16.35;100.00;99719.91;5134993;27;20407;-63
2021/11/29 00:31:04;;;;;;;18.37;5.10;;;;;;;16.35;100.00;99727.84;5134565;27;20974;-62
2021/11/29 00:33:30;;;;;;;11.70;4.00;;;;;;;16.40;100.00;99733.50;5135025;27;20178;-65
2021/11/29 00:35:55;;;;;;;21.47;5.23;;;;;;;16.36;100.00;99725.03;5132248;27;20609;-65
2021/11/29 00:38:22;;;;;;;15.37;4.70;;;;;;;16.24;100.00;99726.34;5134325;27;20179;-63
2021/11/29 00:40:48;;;;;;;17.90;5.30;;;;;;;16.15;100.00;99719.38;5135329;27;20451;-67
2021/11/29 00:43:13;;;;;;;12.63;3.93;;;;;;;16.06;100.00;99715.88;5125363;27;20645;-67
2021/11/29 00:45:39;;;;;;;22.17;5.50;;;;;;;16.04;100.00;99725.00;5114488;28;20242;-66
2021/11/29 00:48:04;;;;;;;15.97;5.50;;;;;;;16.00;100.00;99724.47;5113682;28;20549;-66
2021/11/29 00:50:30;;;;;;;19.60;5.70;;;;;;;16.00;100.00;99750.16;5125338;27;20223;-65
2021/11/29 00:52:56;;;;;;;20.37;4.97;;;;;;;16.00;100.00;99747.50;5134317;27;20403;-67
2021/11/29 00:55:23;;;;;;;15.27;4.90;;;;;;;15.88;100.00;99730.28;5133936;27;20186;-62
2021/11/29 00:57:48;;;;;;;17.73;5.53;;;;;;;15.73;100.00;99724.75;5134902;27;20636;-62
2021/11/29 01:00:17;;;;;;;14.83;4.87;;;;;;;15.52;100.00;99717.19;5139556;27;20462;-65
2021/11/29 01:02:43;;;;;;;21.13;6.80;;;;;;;15.48;100.00;99719.31;5145697;27;20158;-65
2021/11/29 01:05:09;;;;;;;19.20;4.97;;;;;;;15.57;100.00;99751.97;5134070;27;20408;-63
2021/11/29 01:07:35;;;;;;;19.43;5.30;;;;;;;15.77;100.00;99748.09;5133953;27;20163;-62
2021/11/29 01:10:01;;;;;;;15.87;5.90;;;;;;;15.78;100.00;99735.69;5136776;27;20517;-66
2021/11/29 01:12:26;;;;;;;15.87;4.80;;;;;;;15.75;100.00;99736.84;5135245;27;20162;-66
2021/11/29 01:14:52;;;;;;;18.20;5.97;;;;;;;15.66;100.00;99729.88;5133550;27;21032;-65
2021/11/29 01:17:18;;;;;;;16.80;5.40;;;;;;;15.65;100.00;99719.44;5139042;27;20218;-65
2021/11/29 01:19:43;;;;;;;19.73;6.37;;;;;;;15.68;100.00;99714.63;5138459;27;20419;-66
2021/11/29 01:22:09;;;;;;;20.27;6.73;;;;;;;15.75;100.00;99718.31;5133946;27;20169;-65
2021/11/29 01:24:36;;;;;;;25.63;7.27;;;;;;;15.77;100.00;99692.47;5133282;27;20237;-64
2021/11/29 01:27:02;;;;;;;17.50;5.90;;;;;;;15.73;100.00;99700.94;5138446;27;20210;-65
2021/11/29 01:29:28;;;;;;;15.90;5.77;;;;;;;15.64;100.00;99686.84;5140618;27;20499;-64
2021/11/29 01:31:53;;;;;;;19.03;5.50;;;;;;;15.64;100.00;99667.44;5133818;27;20504;-63
2021/11/29 01:34:19;;;;;;;14.00;5.90;;;;;;;15.64;100.00;99660.34;5133891;27;20202;-64
2021/11/29 01:36:45;;;;;;;13.50;5.00;;;;;;;15.88;100.00;99650.78;5133872;27;20170;-66
2021/11/29 01:39:11;;;;;;;23.23;6.73;;;;;;;15.95;100.00;99633.25;5133675;27;20194;-64
2021/11/29 01:41:37;;;;;;;14.33;5.03;;;;;;;15.97;100.00;99639.22;5133831;27;20162;-65
2021/11/29 01:44:03;;;;;;;17.27;5.70;;;;;;;15.99;100.00;99637.22;5133469;27;20411;-66
2021/11/29 01:46:29;;;;;;;14.50;4.87;;;;;;;16.02;100.00;99632.44;5133582;27;20436;-65
2021/11/29 01:48:55;;;;;;;15.50;7.20;;;;;;;16.03;100.00;99631.44;5139842;27;20404;-67
2021/11/29 01:51:21;;;;;;;19.83;5.10;;;;;;;16.04;100.00;99619.00;5133328;27;20170;-64
2021/11/29 01:53:46;;;;;;;24.40;6.73;;;;;;;15.99;100.00;99624.78;5132280;27;20442;-66
2021/11/29 01:56:12;;;;;;;16.10;5.90;;;;;;;15.91;100.00;99608.06;5133090;27;20193;-63
2021/11/29 01:58:40;;;;;;;24.77;6.23;;;;;;;15.85;100.00;99604.25;5140044;27;20188;-66
2021/11/29 02:01:15;;;;;;;21.63;6.37;;;;;;;15.80;100.00;99619.81;5123776;27;20787;-67
2021/11/29 02:03:43;;;;;;;16.40;5.20;;;;;;;15.71;100.00;99618.97;5133371;27;20900;-67
2021/11/29 02:06:10;;;;;;;15.80;4.70;;;;;;;15.78;100.00;99601.44;5132278;27;20404;-66
2021/11/29 02:08:36;;;;;;;16.83;4.80;;;;;;;15.86;100.00;99610.38;5132663;27;20408;-65
2021/11/29 02:11:02;;;;;;;23.30;5.47;;;;;;;15.83;100.00;99606.25;5132175;27;20419;-66
2021/11/29 02:13:28;;;;;;;21.97;5.60;;;;;;;15.77;100.00;99580.41;5132705;27;20444;-65
2021/11/29 02:15:54;;;;;;;25.30;5.40;;;;;;;16.05;100.00;99579.09;5136283;27;20177;-66
2021/11/29 02:18:26;;;;;;;18.83;5.47;;;;;;;16.41;100.00;99572.59;5132376;27;20903;-66
2021/11/29 02:21:18;;;;;;;22.43;6.10;;;;;;;16.47;100.00;99578.03;5147451;27;20158;-67
2021/11/29 02:23:47;;;;;;;16.37;5.63;;;;;;;16.44;100.00;99582.84;5136657;27;20469;-66
2021/11/29 02:26:14;;;;;;;22.07;6.10;;;;;;;16.41;100.00;99580.56;5132909;27;20481;-65
2021/11/29 02:28:42;;;;;;;23.33;5.40;;;;;;;16.44;100.00;99578.38;5131989;27;20400;-67
2021/11/29 02:31:12;;;;;;;17.13;5.67;;;;;;;16.48;100.00;99576.22;5139595;27;20479;-66
2021/11/29 02:33:38;;;;;;;24.10;5.20;;;;;;;16.48;100.00;99578.88;5134481;27;20459;-65
2021/11/29 02:36:04;;;;;;;17.10;5.83;;;;;;;16.42;100.00;99574.25;5132654;27;20404;-67
2021/11/29 02:38:30;;;;;;;25.10;6.40;;;;;;;16.29;100.00;99575.59;5132263;27;20408;-67
2021/11/29 02:40:56;;;;;;;21.43;6.77;;;;;;;15.98;100.00;99567.50;5131373;27;20842;-64
2021/11/29 02:43:22;;;;;;;19.40;5.37;;;;;;;15.66;100.00;99568.31;5131162;27;20491;-66
2021/11/29 02:45:47;;;;;;;19.27;6.03;;;;;;;15.35;100.00;99572.56;5132216;27;20199;-67
2021/11/29 02:48:13;;;;;;;20.13;6.90;;;;;;;15.13;100.00;99568.69;5132344;27;20154;-67
2021/11/29 02:50:38;;;;;;;19.43;5.30;;;;;;;15.00;100.00;99561.19;5132475;27;20185;-66
2021/11/29 02:53:07;;;;;;;18.43;5.50;;;;;;;14.96;100.00;99559.84;5132675;27;20163;-67
2021/11/29 02:55:33;;;;;;;24.67;6.57;;;;;;;14.91;100.00;99562.97;5132470;27;20780;-66
2021/11/29 02:57:59;;;;;;;14.80;5.20;;;;;;;14.95;100.00;99555.53;5137039;27;20406;-65
2021/11/29 03:00:25;;;;;;;21.23;6.83;;;;;;;14.92;100.00;99558.53;5142026;27;20165;-64
2021/11/29 03:03:10;;;;;;;13.33;5.57;;;;;;;15.02;100.00;99564.50;5131136;27;20167;-65
2021/11/29 03:05:36;;;;;;;32.67;6.70;;;;;;;14.80;100.00;99563.25;5132102;27;20388;-67
2021/11/29 03:08:03;;;;;;;17.50;5.50;;;;;;;14.69;100.00;99555.63;5132578;28;20396;-65
2021/11/29 03:10:29;;;;;;;19.93;6.63;;;;;;;14.66;100.00;99564.69;5132729;28;20396;-65
2021/11/29 03:12:55;;;;;;;12.83;5.43;;;;;;;14.60;100.00;99549.47;5134482;27;20747;-64
2021/11/29 03:15:21;;;;;;;13.63;4.70;;;;;;;14.62;100.00;99544.00;5152654;27;20418;-66
2021/11/29 03:17:46;;;;;;;13.60;5.50;;;;;;;14.65;100.00;99548.97;5153101;27;20399;-66
2021/11/29 03:20:13;;;;;;;18.97;7.70;;;;;;;14.61;100.00;99537.06;5142811;27;20609;-64
2021/11/29 03:22:39;;;;;;;15.23;4.40;;;;;;;14.56;100.00;99532.25;5131676;27;20162;-65
2021/11/29 03:25:05;;;;;;;17.30;4.53;;;;;;;14.54;100.00;99509.59;5142714;27;20502;-64
2021/11/29 03:27:30;;;;;;;22.93;5.03;;;;;;;14.43;100.00;99539.72;5131625;28;20478;-68
2021/11/29 03:29:56;;;;;;;21.00;7.70;;;;;;;14.38;100.00;99516.44;5132117;28;20404;-68
2021/11/29 03:32:22;;;;;;;19.17;5.67;;;;;;;14.33;100.00;99539.84;5131831;27;20158;-65
2021/11/29 03:34:49;;;;;;;14.97;4.93;;;;;;;14.28;100.00;99507.81;5132876;27;20254;-64
2021/11/29 03:37:17;;;;;;;20.40;6.57;;;;;;;14.22;100.00;99497.03;5131346;27;20494;-67
2021/11/29 03:39:43;;;;;;;17.27;5.60;;;;;;;14.11;100.00;99475.16;5132142;27;21189;-66
2021/11/29 03:42:09;;;;;;;28.97;6.17;;;;;;;13.98;100.00;99466.84;5148048;27;20463;-65
2021/11/29 03:44:35;;;;;;;17.47;5.40;;;;;;;13.91;100.00;99479.00;5135613;27;20163;-68
2021/11/29 03:47:02;;;;;;;23.33;6.27;;;;;;;13.84;100.00;99470.88;5135768;27;20870;-68
2021/11/29 03:49:28;;;;;;;25.33;6.90;;;;;;;13.80;100.00;99476.63;5135452;27;20419;-65
2021/11/29 03:51:54;;;;;;;24.93;7.03;;;;;;;13.77;100.00;99466.38;5148295;27;20422;-65
2021/11/29 03:54:20;;;;;;;22.40;5.40;;;;;;;13.69;100.00;99446.03;5152441;27;20447;-63
2021/11/29 03:56:46;;;;;;;27.47;6.40;;;;;;;13.62;100.00;99460.00;5135431;27;20436;-66
2021/11/29 03:59:12;;;;;;;19.80;5.93;;;;;;;13.50;100.00;99457.59;5135695;27;20392;-67
2021/11/29 04:01:39;;;;;;;18.17;5.20;;;;;;;13.47;100.00;99447.34;5144408;27;20459;-67
2021/11/29 04:04:05;;;;;;;19.30;5.13;;;;;;;13.44;100.00;99423.06;5140512;27;20274;-66
2021/11/29 04:06:31;;;;;;;20.07;5.70;;;;;;;13.38;100.00;99424.53;5141094;27;20926;-66
2021/11/29 04:08:56;;;;;;;23.43;5.43;;;;;;;13.36;100.00;99409.81;5154027;27;20567;-63
2021/11/29 04:11:22;;;;;;;27.17;5.23;;;;;;;13.27;100.00;99422.13;5144467;27;20204;-66
2021/11/29 04:13:48;;;;;;;31.00;6.37;;;;;;;13.32;100.00;99417.22;5135439;27;20216;-65
2021/11/29 04:16:15;;;;;;;33.67;8.87;;;;;;;13.21;100.00;99412.16;5134950;27;20173;-66
2021/11/29 04:18:44;;;;;;;22.00;6.43;;;;;;;13.07;100.00;99410.84;5135444;27;20285;-64
2021/11/29 04:21:12;;;;;;;32.40;6.60;;;;;;;13.00;100.00;99404.56;5133823;27;20412;-64
2021/11/29 04:23:38;;;;;;;28.10;7.07;;;;;;;12.93;100.00;99403.50;5134941;27;20919;-64
2021/11/29 04:26:04;;;;;;;29.27;7.67;;;;;;;12.92;100.00;99402.69;5135151;27;20410;-66
2021/11/29 04:28:30;;;;;;;22.07;6.20;;;;;;;12.94;100.00;99400.72;5140598;27;20158;-66
2021/11/29 04:30:56;;;;;;;12.40;6.10;;;;;;;12.91;100.00;99389.63;5137741;27;20459;-63
2021/11/29 04:33:21;;;;;;;17.00;6.37;;;;;;;12.89;100.00;99375.78;5135006;27;20452;-67
2021/11/29 04:35:47;;;;;;;17.17;5.60;;;;;;;12.92;100.00;99384.22;5134703;27;20651;-67
2021/11/29 04:38:14;;;;;;;22.47;7.30;;;;;;;12.92;100.00;99380.72;5134843;27;20197;-65
2021/11/29 04:40:40;;;;;;;23.03;5.77;;;;;;;12.90;100.00;99372.16;5135001;27;20159;-62
2021/11/29 04:43:06;;;;;;;21.40;6.70;;;;;;;12.87;100.00;99391.75;5135304;27;20449;-67
2021/11/29 04:45:31;;;;;;;23.47;6.33;;;;;;;12.98;100.00;99372.22;5134809;27;20412;-65
2021/11/29 04:47:58;;;;;;;28.63;7.43;;;;;;;13.03;100.00;99383.16;5135109;27;20158;-65
2021/11/29 04:50:23;;;;;;;22.10;7.30;;;;;;;13.13;100.00;99356.69;5136119;27;20174;-68
2021/11/29 04:52:49;;;;;;;36.17;6.93;;;;;;;13.20;100.00;99363.03;5134603;27;20396;-64
2021/11/29 04:55:15;;;;;;;21.03;6.80;;;;;;;13.35;100.00;99356.22;5134155;27;20232;-67
2021/11/29 04:57:42;;;;;;;15.93;6.03;;;;;;;13.47;100.00;99318.06;5140385;27;20165;-65
2021/11/29 05:00:10;;;;;;;21.27;5.60;;;;;;;13.51;100.00;99276.34;5154613;27;20226;-65
2021/11/29 05:02:36;;;;;;;20.73;6.27;;;;;;;13.46;100.00;99281.28;5113611;28;20397;-66
2021/11/29 05:05:02;;;;;;;14.60;6.00;;;;;;;13.36;100.00;99277.91;5131592;27;20763;-66
2021/11/29 05:07:28;;;;;;;20.20;6.60;;;;;;;13.26;100.00;99317.59;5141551;27;20396;-66
2021/11/29 05:09:53;;;;;;;22.63;6.47;;;;;;;13.26;100.00;99326.31;5154401;27;20789;-66
2021/11/29 05:12:19;;;;;;;21.80;8.67;;;;;;;13.39;100.00;99330.38;5152674;27;20196;-66
2021/11/29 05:14:46;;;;;;;28.23;6.70;;;;;;;13.28;100.00;99320.88;5154503;27;20611;-66
2021/11/29 05:17:14;;;;;;;21.60;6.63;;;;;;;13.24;100.00;99315.09;5139706;27;20177;-64
2021/11/29 05:19:39;;;;;;;23.37;8.57;;;;;;;13.24;100.00;99299.28;5154444;27;20437;-66
2021/11/29 05:22:05;;;;;;;15.00;5.80;;;;;;;13.23;100.00;99291.53;5154599;27;20447;-66
2021/11/29 05:24:31;;;;;;;20.10;7.57;;;;;;;13.31;100.00;99291.59;5155003;27;20708;-67
2021/11/29 05:26:56;;;;;;;19.67;6.57;;;;;;;13.30;100.00;99289.94;5137403;27;20579;-65
2021/11/29 05:29:22;;;;;;;27.87;6.50;;;;;;;13.36;100.00;99291.09;5153836;27;20192;-63
2021/11/29 05:31:47;;;;;;;17.73;6.70;;;;;;;13.50;100.00;99299.25;5137258;27;20221;-66
2021/11/29 05:34:13;;;;;;;30.90;6.70;;;;;;;13.55;100.00;99283.78;5139037;27;20189;-65
2021/11/29 05:36:40;;;;;;;21.63;6.50;;;;;;;13.56;100.00;99279.34;5133896;27;20167;-68
2021/11/29 05:39:06;;;;;;;26.73;6.77;;;;;;;13.58;100.00;99275.53;5134004;27;20388;-66
2021/11/29 05:41:31;;;;;;;26.40;7.70;;;;;;;13.53;100.00;99264.66;5133431;27;20476;-64
2021/11/29 05:43:57;;;;;;;32.53;7.70;;;;;;;13.55;100.00;99257.41;5133372;27;20389;-64
2021/11/29 05:46:23;;;;;;;24.50;8.37;;;;;;;13.57;100.00;99252.78;5146784;27;20161;-65
2021/11/29 05:48:52;;;;;;;37.53;11.63;;;;;;;13.53;100.00;99242.72;5133416;27;20169;-67
2021/11/29 05:51:18;;;;;;;23.97;8.50;;;;;;;13.63;100.00;99230.22;5138200;27;20243;-66
2021/11/29 05:53:45;;;;;;;37.90;8.57;;;;;;;13.63;100.00;99237.31;5153897;27;20475;-66
2021/11/29 05:56:11;;;;;;;31.60;8.17;;;;;;;13.70;100.00;99225.13;5150803;27;20508;-66
2021/11/29 05:58:36;;;;;;;33.43;8.30;;;;;;;13.84;100.00;99233.25;5153708;27;20444;-67
2021/11/29 06:01:03;;;;;;;38.53;9.23;;;;;;;14.02;100.00;99237.59;5145083;27;20257;-66
2021/11/29 06:03:29;;;;;;;26.23;7.87;;;;;;;14.24;100.00;99242.25;5132485;27;20155;-63
2021/11/29 06:05:55;;;;;;;27.97;8.60;;;;;;;14.34;100.00;99242.09;5135362;27;20468;-65
2021/11/29 06:08:21;;;;;;;27.03;8.37;;;;;;;14.43;100.00;99231.38;5132659;27;20919;-65
2021/11/29 06:10:47;;;;;;;35.97;9.13;;;;;;;14.56;100.00;99217.69;5133210;27;20191;-66
2021/11/29 06:13:12;;;;;;;31.83;7.63;;;;;;;14.71;100.00;99245.13;5132441;27;20908;-67
2021/11/29 06:15:38;;;;;;;39.53;9.10;;;;;;;14.80;100.00;99235.34;5138056;27;20154;-65
2021/11/29 06:18:03;;;;;;;26.93;8.23;;;;;;;14.94;100.00;99239.16;5153169;27;20535;-65
2021/11/29 06:20:29;;;;;;;41.27;10.63;;;;;;;15.13;100.00;99240.63;5147469;27;20178;-64
2021/11/29 06:22:55;;;;;;;39.40;13.27;;;;;;;15.26;100.00;99239.09;5132975;27;20155;-65
2021/11/29 06:25:22;;;;;;;34.00;10.90;;;;;;;15.40;100.00;99226.94;5134157;27;20165;-66
2021/11/29 06:27:49;;;;;;;49.87;9.57;;;;;;;15.47;100.00;99219.16;5152786;27;20391;-67
2021/11/29 06:30:16;;;;;;;38.17;10.37;;;;;;;15.52;100.00;99217.66;5152921;27;20439;-65
2021/11/29 06:32:42;;;;;;;50.63;10.13;;;;;;;15.69;100.00;99207.03;5153160;27;20794;-66
2021/11/29 06:35:08;;;;;;;43.70;11.07;;;;;;;15.81;100.00;99201.16;5132916;27;20910;-65
2021/11/29 06:37:35;;;;;;;30.10;8.33;;;;;;;15.93;100.00;99206.06;5151431;27;20853;-65
2021/11/29 06:40:01;;;;;;;34.70;11.67;;;;;;;16.00;100.00;99202.53;5152494;27;20387;-64
2021/11/29 06:42:27;;;;;;;55.53;11.57;;;;;;;16.04;100.00;99195.91;5111858;28;20396;-65
2021/11/29 06:44:52;;;;;;;33.70;8.90;;;;;;;16.16;100.00;99188.34;5112046;28;20393;-64
2021/11/29 06:47:18;;;;;;;59.80;12.63;;;;;;;16.15;100.00;99202.59;5146903;27;20632;-66
2021/11/29 06:49:44;;;;;;;34.40;10.00;;;;;;;16.25;100.00;99183.84;5151426;27;20676;-70
2021/11/29 06:52:09;;;;;;;40.53;10.03;;;;;;;16.44;100.00;99167.44;5151113;27;20168;-72
2021/11/29 06:54:37;;;;;;;47.37;9.83;;;;;;;16.58;100.00;99160.50;5152527;27;20190;-70
2021/11/29 06:57:04;;;;;;;43.50;9.43;;;;;;;16.79;100.00;99171.28;5132379;27;20637;-68
2021/11/29 06:59:30;;;;;;;34.27;10.10;;;;;;;16.96;100.00;99165.81;5131406;27;20438;-66
2021/11/29 07:01:56;;;;;;;43.25;11.68;;;;;;;17.09;100.00;99166.00;5112927;28;20458;-71
2021/11/29 07:04:22;;;;;;;38.30;10.90;;;;;;;17.24;100.00;99145.56;5148403;27;20556;-65
2021/11/29 07:06:48;;;;;;;43.43;10.80;;;;;;;17.28;100.00;99157.44;5145642;27;20429;-70
2021/11/29 07:09:14;;;;;;;44.93;10.67;;;;;;;17.35;100.00;99146.94;5152595;27;20786;-70
2021/11/29 07:11:39;;;;;;;52.70;10.90;;;;;;;17.73;100.00;99139.63;5140448;27;20223;-73
2021/11/29 07:14:06;;;;;;;39.80;11.20;;;;;;;17.94;100.00;99142.31;5130748;27;20443;-70
2021/11/29 07:16:36;;;;;;;61.90;11.83;;;;;;;18.25;100.00;99134.00;5140541;27;20220;-70
2021/11/29 07:19:03;;;;;;;51.83;10.60;;;;;;;18.56;100.00;99127.50;5135416;27;20410;-63
2021/11/29 07:21:29;;;;;;;49.63;12.27;;;;;;;18.82;100.00;99141.03;5135430;27;20491;-64
2021/11/29 07:23:55;;;;;;;59.30;13.30;;;;;;;19.09;100.00;99119.84;5137643;27;20492;-67
2021/11/29 07:26:21;;;;;;;85.10;16.30;;;;;;;19.51;100.00;99113.47;5156424;27;20505;-68
2021/11/29 07:28:47;;;;;;;38.00;8.20;;;;;;;19.78;100.00;99114.38;5136821;27;20170;-68
2021/11/29 07:31:12;;;;;;;61.80;12.50;;;;;;;19.86;100.00;99106.19;5119859;27;20482;-64
2021/11/29 07:33:38;;;;;;;71.00;11.90;;;;;;;19.94;100.00;99105.19;5156080;27;20204;-71
2021/11/29 07:36:04;;;;;;;73.97;14.60;;;;;;;20.06;100.00;99100.91;5135373;27;20171;-68
2021/11/29 07:38:29;;;;;;;38.67;10.00;;;;;;;20.18;100.00;99093.94;5135315;27;20185;-65
2021/11/29 07:40:55;;;;;;;44.27;9.90;;;;;;;20.28;100.00;99079.38;5136411;27;20354;-63
2021/11/29 07:43:20;;;;;;;41.43;12.40;;;;;;;20.44;100.00;99097.66;5135188;27;20558;-64
2021/11/29 07:45:46;;;;;;;48.00;10.40;;;;;;;20.48;100.00;99093.56;5134993;27;20159;-64
2021/11/29 07:48:12;;;;;;;49.83;9.30;;;;;;;20.48;100.00;99089.03;5141899;27;20161;-70
2021/11/29 07:50:38;;;;;;;58.23;12.20;;;;;;;20.49;100.00;99072.00;5141640;27;20166;-71
2021/11/29 07:53:03;;;;;;;51.37;10.80;;;;;;;20.63;100.00;99094.16;5133920;27;20197;-66
2021/11/29 07:55:30;;;;;;;33.30;7.30;;;;;;;20.74;100.00;99082.00;5134384;27;20781;-69
2021/11/29 07:57:58;;;;;;;72.87;13.63;;;;;;;20.75;100.00;99065.75;5134332;27;20422;-70
2021/11/29 08:00:26;;;;;;;48.10;12.00;;;;;;;20.78;100.00;99077.84;5137188;27;20459;-62
2021/11/29 08:02:56;;;;;;;35.63;8.20;;;;;;;20.80;100.00;99070.47;5136573;27;20407;-66
2021/11/29 08:05:23;;;;;;;31.20;7.93;;;;;;;20.95;100.00;99075.56;5134836;27;20412;-64
2021/11/29 08:07:50;;;;;;;54.57;12.23;;;;;;;21.02;100.00;99087.88;5141214;27;20420;-63
2021/11/29 08:10:16;;;;;;;43.40;11.20;;;;;;;21.08;100.00;99080.84;5133837;27;20440;-65
2021/11/29 08:12:42;;;;;;;44.73;11.33;;;;;;;21.11;100.00;99069.75;5134814;27;20396;-64
2021/11/29 08:15:09;;;;;;;46.57;10.00;;;;;;;21.18;100.00;99099.94;5134575;27;20950;-65
2021/11/29 08:17:34;;;;;;;53.77;11.50;;;;;;;21.27;100.00;99073.78;5134667;27;20426;-69
2021/11/29 08:20:00;;;;;;;50.07;13.77;;;;;;;21.30;100.00;99066.19;5147413;27;20442;-65
2021/11/29 08:22:27;;;;;;;54.83;13.27;;;;;;;21.37;100.00;99082.19;5144906;27;20151;-64
2021/11/29 08:24:52;;;;;;;43.57;8.70;;;;;;;21.45;100.00;99075.78;5133807;27;20161;-65
2021/11/29 08:27:23;;;;;;;48.33;11.70;;;;;;;21.53;100.00;99067.50;5133783;27;20388;-72
2021/11/29 08:29:49;;;;;;;64.63;13.07;;;;;;;21.52;100.00;99079.25;5134773;27;20517;-64
2021/11/29 08:32:18;;;;;;;54.17;13.10;;;;;;;21.55;100.00;99073.47;5141512;27;20956;-66
2021/11/29 08:34:44;;;;;;;56.77;13.47;;;;;;;21.61;100.00;99083.28;5146524;27;20257;-71
2021/11/29 08:37:10;;;;;;;54.97;14.13;;;;;;;21.65;100.00;99073.81;5149022;27;20842;-62
2021/11/29 08:39:37;;;;;;;53.57;11.43;;;;;;;21.66;100.00;99071.97;5144138;27;20206;-62
2021/11/29 08:42:03;;;;;;;53.50;13.70;;;;;;;21.69;100.00;99064.34;5147568;27;20400;-68
2021/11/29 08:44:29;;;;;;;51.27;12.47;;;;;;;21.76;100.00;99070.44;5138014;27;20408;-63
2021/11/29 08:46:56;;;;;;;62.87;14.03;;;;;;;21.86;100.00;99076.16;5133895;27;20404;-71
2021/11/29 08:49:23;;;;;;;52.07;10.73;;;;;;;21.93;100.00;99051.22;5133797;27;20169;-72
2021/11/29 08:51:49;;;;;;;46.93;11.17;;;;;;;22.01;100.00;99057.13;5135068;27;20411;-73
2021/11/29 08:54:16;;;;;;;53.87;14.13;;;;;;;22.13;100.00;99062.59;5133522;27;20443;-69
2021/11/29 08:56:42;;;;;;;55.13;15.20;;;;;;;22.24;100.00;99055.72;5133372;27;20267;-75
2021/11/29 08:59:07;;;;;;;41.00;11.17;;;;;;;22.35;100.00;99053.13;5134091;27;20388;-62
2021/11/29 09:01:34;;;;;;;60.50;12.03;;;;;;;22.39;100.00;99058.88;5144623;27;20410;-73
2021/11/29 09:04:00;;;;;;;50.70;14.20;;;;;;;22.50;100.00;99030.53;5137478;27;20411;-64
2021/11/29 09:06:26;;;;;;;51.43;12.30;;;;;;;22.58;100.00;99051.66;5133163;27;20396;-65
2021/11/29 09:08:51;;;;;;;62.33;13.47;;;;;;;22.56;100.00;99017.09;5133507;27;20319;-73
2021/11/29 09:11:17;;;;;;;50.87;11.73;;;;;;;22.84;100.00;99039.88;5132823;27;20863;-63
2021/11/29 09:13:44;;;;;;;55.00;11.63;;;;;;;22.77;100.00;99039.94;5139116;27;20398;-74
2021/11/29 09:16:11;;;;;;;46.20;11.87;;;;;;;22.72;100.00;99037.09;5152815;27;20545;-64
2021/11/29 09:18:37;;;;;;;42.50;11.07;;;;;;;22.69;100.00;99034.88;5146418;27;20407;-67
2021/11/29 09:21:04;;;;;;;39.43;9.27;;;;;;;22.92;100.00;99064.50;5114765;27;20424;-66
2021/11/29 09:23:31;;;;;;;30.83;6.33;;;;;;;22.62;100.00;99063.59;5133165;27;20163;-65
2021/11/29 09:25:57;;;;;;;34.03;6.17;;;;;;;21.89;100.00;99075.72;5132662;27;20439;-64
2021/11/29 09:28:23;;;;;;;29.00;7.53;;;;;;;21.46;100.00;99090.78;5137294;27;20409;-63
2021/11/29 09:30:49;;;;;;;23.60;5.10;;;;;;;21.44;100.00;99077.63;5152771;27;20550;-63
2021/11/29 09:33:16;;;;;;;32.70;5.37;;;;;;;21.16;100.00;99069.94;5149033;27;20162;-62
2021/11/29 09:35:42;;;;;;;22.97;5.43;;;;;;;20.88;100.00;99067.59;5143458;27;20170;-63
2021/11/29 09:38:08;;;;;;;18.10;3.93;;;;;;;21.21;100.00;99072.78;5139640;27;20406;-64
2021/11/29 09:40:36;;;;;;;12.80;3.30;;;;;;;20.66;100.00;99067.03;5137462;27;20170;-63
2021/11/29 09:43:05;;;;;;;10.77;3.40;;;;;;;20.39;100.00;99081.41;5133163;27;20533;-63
2021/11/29 09:45:31;;;;;;;11.57;4.50;;;;;;;20.07;100.00;99113.19;5133012;27;20417;-62
2021/11/29 09:47:58;;;;;;;9.97;2.17;;;;;;;19.81;100.00;99059.88;5140286;27;20836;-62
2021/11/29 09:50:26;;;;;;;17.93;3.60;;;;;;;19.51;100.00;99115.34;5142310;27;20990;-67
2021/11/29 09:52:53;;;;;;;10.20;3.30;;;;;;;19.68;100.00;99084.66;5114141;27;20469;-63
2021/11/29 09:55:22;;;;;;;12.10;3.77;;;;;;;19.73;100.00;99063.56;5145817;27;20454;-62
2021/11/29 09:57:48;;;;;;;25.90;4.63;;;;;;;19.34;100.00;99073.03;5142485;27;20393;-66
2021/11/29 10:00:21;;;;;;;13.07;3.13;;;;;;;19.55;100.00;99087.25;5137218;27;20387;-64
2021/11/29 10:02:46;;;;;;;17.43;4.93;;;;;;;19.39;100.00;99080.44;5136274;27;20887;-64
2021/11/29 10:05:12;;;;;;;19.23;7.53;;;;;;;19.66;100.00;99086.72;5129982;27;20446;-64
2021/11/29 10:07:47;;;;;;;24.17;5.20;;;;;;;19.39;100.00;99067.13;5113591;27;20166;-63
2021/11/29 10:10:31;;;;;;;13.77;3.43;;;;;;;18.79;100.00;99082.84;5152365;27;20165;-63
2021/11/29 10:13:03;;;;;;;14.43;3.90;;;;;;;18.55;100.00;99076.13;5152907;27;20499;-63
2021/11/29 10:15:30;;;;;;;11.13;4.10;;;;;;;18.46;100.00;99069.31;5149923;27;20516;-63
2021/11/29 10:18:14;;;;;;;12.70;3.67;;;;;;;18.65;100.00;99089.06;5131593;27;20486;-63
2021/11/29 10:21:06;;;;;;;9.90;2.87;;;;;;;18.79;100.00;99082.84;5136201;27;20778;-65
2021/11/29 10:23:35;;;;;;;11.93;2.30;;;;;;;18.57;100.00;99066.09;5124375;27;20454;-62
2021/11/29 10:26:10;;;;;;;13.77;3.90;;;;;;;18.15;100.00;99053.75;5131138;27;20449;-67
2021/11/29 10:28:41;;;;;;;10.87;5.87;;;;;;;17.88;100.00;99052.72;5141811;27;20407;-73
2021/11/29 10:31:17;;;;;;;9.27;2.03;;;;;;;18.08;100.00;99041.44;5147767;27;20450;-73
2021/11/29 10:34:02;;;;;;;13.33;3.50;;;;;;;18.85;100.00;99039.47;5138025;27;20455;-66
2021/11/29 10:36:34;;;;;;;8.10;2.20;;;;;;;19.79;100.00;99035.25;5132895;27;21046;-75
2021/11/29 10:39:05;;;;;;;14.27;3.72;;;;;;;20.59;100.00;99025.38;5132509;27;20446;-66
2021/11/29 10:41:36;;;;;;;15.97;3.70;;;;;;;19.90;100.00;99037.31;5136102;27;20522;-67
2021/11/29 10:44:04;;;;;;;9.83;2.47;;;;;;;20.06;100.00;99012.91;5132502;27;20927;-73
2021/11/29 10:46:35;;;;;;;7.13;2.70;;;;;;;20.56;100.00;99009.78;5138332;27;20408;-73
2021/11/29 10:49:08;;;;;;;10.20;2.50;;;;;;;21.21;100.00;99008.66;5131169;27;20461;-65
2021/11/29 10:51:36;;;;;;;9.47;2.63;;;;;;;21.14;100.00;99009.72;5131622;27;20499;-66
2021/11/29 10:54:17;;;;;;;8.10;2.53;;;;;;;21.32;100.00;98994.66;5150787;27;20450;-63
2021/11/29 10:56:44;;;;;;;14.70;2.67;;;;;;;20.08;100.00;99045.50;5138657;27;21000;-72
2021/11/29 10:59:13;;;;;;;9.90;2.53;;;;;;;19.38;100.00;99053.00;5131214;27;20764;-64
2021/11/29 11:01:40;;;;;;;9.20;3.20;;;;;;;19.00;100.00;99062.47;5131429;27;20487;-69
2021/11/29 11:04:21;;;;;;;11.93;3.80;;;;;;;18.60;100.00;99026.84;5142734;27;20412;-64
2021/11/29 11:06:51;;;;;;;6.37;1.60;;;;;;;18.28;100.00;99083.09;5131560;27;20425;-63
2021/11/29 11:09:24;;;;;;;7.47;1.63;;;;;;;17.90;100.00;99089.72;5131696;27;20403;-71
2021/11/29 11:11:56;;;;;;;8.23;2.53;;;;;;;17.72;100.00;99059.13;5129755;27;20407;-67
2021/11/29 11:14:30;;;;;;;7.20;2.00;;;;;;;17.73;100.00;99073.22;5132548;27;20478;-72
2021/11/29 11:17:26;;;;;;;6.87;2.47;;;;;;;17.46;100.00;99127.88;5119701;28;20495;-73